sensor_id;sensor_type;location;lat;lon;timestamp;P1;durP1;ratioP1;P2;durP2;ratioP2
5987;SDS011;3021;51.000;6.980;2022-12-07T00:01:18;52.28;;;28.35;;
5987;SDS011;3021;51.000;6.980;2022-12-07T00:03:55;54.88;;;27.83;;
5987;SDS011;3021;51.000;6.980;2022-12-07T00:06:29;53.92;;;27.60;;
5987;SDS011;3021;51.000;6.980;2022-12-07T00:08:56;48.92;;;27.35;;
5987;SDS011;3021;51.000;6.980;2022-12-07T00:11:22;48.63;;;27.33;;
5987;SDS011;3021;51.000;6.980;2022-12-07T00:13:58;58.45;;;27.35;;
5987;SDS011;3021;51.000;6.980;2022-12-07T00:16:27;53.20;;;27.90;;
5987;SDS011;3021;51.000;6.980;2022-12-07T00:18:54;57.47;;;27.42;;
5987;SDS011;3021;51.000;6.980;2022-12-07T00:21:21;55.60;;;27.23;;
5987;SDS011;3021;51.000;6.980;2022-12-07T00:23:49;57.63;;;30.65;;
5987;SDS011;3021;51.000;6.980;2022-12-07T00:26:17;54.97;;;28.65;;
5987;SDS011;3021;51.000;6.980;2022-12-07T00:29:05;49.67;;;28.02;;
5987;SDS011;3021;51.000;6.980;2022-12-07T00:31:31;50.35;;;27.88;;
5987;SDS011;3021;51.000;6.980;2022-12-07T00:34:00;51.55;;;27.20;;
5987;SDS011;3021;51.000;6.980;2022-12-07T00:36:25;54.63;;;28.33;;
5987;SDS011;3021;51.000;6.980;2022-12-07T00:38:51;56.95;;;28.38;;
5987;SDS011;3021;51.000;6.980;2022-12-07T00:41:18;50.05;;;27.67;;
5987;SDS011;3021;51.000;6.980;2022-12-07T00:43:48;50.63;;;26.73;;
5987;SDS011;3021;51.000;6.980;2022-12-07T00:46:15;54.80;;;28.55;;
5987;SDS011;3021;51.000;6.980;2022-12-07T00:48:41;58.53;;;28.85;;
5987;SDS011;3021;51.000;6.980;2022-12-07T00:51:07;50.00;;;27.55;;
5987;SDS011;3021;51.000;6.980;2022-12-07T00:53:34;51.63;;;27.92;;
5987;SDS011;3021;51.000;6.980;2022-12-07T00:56:07;50.47;;;27.27;;
5987;SDS011;3021;51.000;6.980;2022-12-07T00:58:33;57.42;;;28.20;;
5987;SDS011;3021;51.000;6.980;2022-12-07T01:00:59;50.17;;;27.90;;
5987;SDS011;3021;51.000;6.980;2022-12-07T01:03:29;55.83;;;28.05;;
5987;SDS011;3021;51.000;6.980;2022-12-07T01:05:55;46.63;;;27.15;;
5987;SDS011;3021;51.000;6.980;2022-12-07T01:08:21;52.60;;;26.90;;
5987;SDS011;3021;51.000;6.980;2022-12-07T01:10:47;49.47;;;27.23;;
5987;SDS011;3021;51.000;6.980;2022-12-07T01:13:12;48.55;;;26.80;;
5987;SDS011;3021;51.000;6.980;2022-12-07T01:15:39;46.53;;;26.88;;
5987;SDS011;3021;51.000;6.980;2022-12-07T01:18:05;44.10;;;26.98;;
5987;SDS011;3021;51.000;6.980;2022-12-07T01:20:30;51.75;;;27.13;;
5987;SDS011;3021;51.000;6.980;2022-12-07T01:22:56;52.15;;;27.85;;
5987;SDS011;3021;51.000;6.980;2022-12-07T01:25:21;52.35;;;27.88;;
5987;SDS011;3021;51.000;6.980;2022-12-07T01:27:46;46.40;;;27.40;;
5987;SDS011;3021;51.000;6.980;2022-12-07T01:30:12;46.00;;;27.75;;
5987;SDS011;3021;51.000;6.980;2022-12-07T01:32:38;52.20;;;29.00;;
5987;SDS011;3021;51.000;6.980;2022-12-07T01:35:03;52.55;;;29.02;;
5987;SDS011;3021;51.000;6.980;2022-12-07T01:37:33;58.50;;;30.15;;
5987;SDS011;3021;51.000;6.980;2022-12-07T01:39:59;53.65;;;29.02;;
5987;SDS011;3021;51.000;6.980;2022-12-07T01:42:25;55.97;;;29.75;;
5987;SDS011;3021;51.000;6.980;2022-12-07T01:47:44;58.10;;;30.25;;
5987;SDS011;3021;51.000;6.980;2022-12-07T01:50:18;58.22;;;29.17;;
5987;SDS011;3021;51.000;6.980;2022-12-07T01:52:45;54.58;;;29.65;;
5987;SDS011;3021;51.000;6.980;2022-12-07T01:55:15;60.80;;;31.08;;
5987;SDS011;3021;51.000;6.980;2022-12-07T01:57:42;59.40;;;32.08;;
5987;SDS011;3021;51.000;6.980;2022-12-07T02:00:11;57.13;;;31.38;;
5987;SDS011;3021;51.000;6.980;2022-12-07T02:02:38;60.08;;;30.88;;
5987;SDS011;3021;51.000;6.980;2022-12-07T02:05:12;60.20;;;31.00;;
5987;SDS011;3021;51.000;6.980;2022-12-07T02:07:38;56.25;;;32.17;;
5987;SDS011;3021;51.000;6.980;2022-12-07T02:12:41;58.47;;;32.22;;
5987;SDS011;3021;51.000;6.980;2022-12-07T02:15:09;59.38;;;32.42;;
5987;SDS011;3021;51.000;6.980;2022-12-07T02:17:47;60.95;;;32.42;;
5987;SDS011;3021;51.000;6.980;2022-12-07T02:20:15;60.40;;;32.33;;
5987;SDS011;3021;51.000;6.980;2022-12-07T02:23:04;64.00;;;31.48;;
5987;SDS011;3021;51.000;6.980;2022-12-07T02:31:55;64.45;;;33.25;;
5987;SDS011;3021;51.000;6.980;2022-12-07T02:36:52;66.30;;;32.80;;
5987;SDS011;3021;51.000;6.980;2022-12-07T02:39:42;63.65;;;33.47;;
5987;SDS011;3021;51.000;6.980;2022-12-07T02:42:23;61.55;;;33.13;;
5987;SDS011;3021;51.000;6.980;2022-12-07T02:44:55;62.88;;;33.30;;
5987;SDS011;3021;51.000;6.980;2022-12-07T02:47:21;66.30;;;33.40;;
5987;SDS011;3021;51.000;6.980;2022-12-07T02:49:49;69.38;;;33.20;;
5987;SDS011;3021;51.000;6.980;2022-12-07T02:52:16;63.58;;;32.75;;
5987;SDS011;3021;51.000;6.980;2022-12-07T02:54:41;71.60;;;34.03;;
5987;SDS011;3021;51.000;6.980;2022-12-07T03:08:42;65.10;;;33.65;;
5987;SDS011;3021;51.000;6.980;2022-12-07T03:11:14;73.63;;;35.08;;
5987;SDS011;3021;51.000;6.980;2022-12-07T03:16:45;64.80;;;34.35;;
5987;SDS011;3021;51.000;6.980;2022-12-07T03:19:29;77.30;;;36.33;;
5987;SDS011;3021;51.000;6.980;2022-12-07T03:22:05;65.45;;;34.97;;
5987;SDS011;3021;51.000;6.980;2022-12-07T03:24:35;71.15;;;35.92;;
5987;SDS011;3021;51.000;6.980;2022-12-07T03:27:07;73.82;;;36.30;;
5987;SDS011;3021;51.000;6.980;2022-12-07T03:29:38;65.28;;;35.83;;
5987;SDS011;3021;51.000;6.980;2022-12-07T03:32:30;65.05;;;34.50;;
5987;SDS011;3021;51.000;6.980;2022-12-07T03:35:03;73.20;;;37.67;;
5987;SDS011;3021;51.000;6.980;2022-12-07T03:37:42;70.35;;;37.47;;
5987;SDS011;3021;51.000;6.980;2022-12-07T03:42:47;74.32;;;36.72;;
5987;SDS011;3021;51.000;6.980;2022-12-07T03:45:13;71.53;;;37.42;;
5987;SDS011;3021;51.000;6.980;2022-12-07T03:47:47;73.78;;;36.38;;
5987;SDS011;3021;51.000;6.980;2022-12-07T03:50:28;67.43;;;35.78;;
5987;SDS011;3021;51.000;6.980;2022-12-07T03:53:03;68.00;;;37.10;;
5987;SDS011;3021;51.000;6.980;2022-12-07T03:55:35;74.10;;;37.53;;
5987;SDS011;3021;51.000;6.980;2022-12-07T03:58:05;67.43;;;36.53;;
5987;SDS011;3021;51.000;6.980;2022-12-07T04:00:37;72.05;;;35.33;;
5987;SDS011;3021;51.000;6.980;2022-12-07T04:03:03;65.93;;;35.90;;
5987;SDS011;3021;51.000;6.980;2022-12-07T04:05:28;77.65;;;37.60;;
5987;SDS011;3021;51.000;6.980;2022-12-07T04:07:54;68.32;;;36.00;;
5987;SDS011;3021;51.000;6.980;2022-12-07T04:10:19;71.30;;;37.42;;
5987;SDS011;3021;51.000;6.980;2022-12-07T04:12:45;68.05;;;35.67;;
5987;SDS011;3021;51.000;6.980;2022-12-07T04:15:10;75.00;;;36.05;;
5987;SDS011;3021;51.000;6.980;2022-12-07T04:17:35;77.97;;;36.10;;
5987;SDS011;3021;51.000;6.980;2022-12-07T04:20:01;65.47;;;36.40;;
5987;SDS011;3021;51.000;6.980;2022-12-07T04:22:26;73.00;;;37.72;;
5987;SDS011;3021;51.000;6.980;2022-12-07T04:24:52;72.60;;;36.15;;
5987;SDS011;3021;51.000;6.980;2022-12-07T04:27:17;65.20;;;35.53;;
5987;SDS011;3021;51.000;6.980;2022-12-07T04:29:42;77.90;;;40.33;;
5987;SDS011;3021;51.000;6.980;2022-12-07T04:32:08;69.78;;;35.83;;
5987;SDS011;3021;51.000;6.980;2022-12-07T04:34:33;72.38;;;35.25;;
5987;SDS011;3021;51.000;6.980;2022-12-07T04:36:58;68.97;;;34.67;;
5987;SDS011;3021;51.000;6.980;2022-12-07T04:39:27;69.72;;;33.78;;
5987;SDS011;3021;51.000;6.980;2022-12-07T04:41:54;66.38;;;34.67;;
5987;SDS011;3021;51.000;6.980;2022-12-07T04:44:21;62.20;;;32.95;;
5987;SDS011;3021;51.000;6.980;2022-12-07T04:46:48;77.60;;;35.15;;
5987;SDS011;3021;51.000;6.980;2022-12-07T04:49:14;65.40;;;33.72;;
5987;SDS011;3021;51.000;6.980;2022-12-07T04:51:40;62.90;;;35.35;;
5987;SDS011;3021;51.000;6.980;2022-12-07T04:54:06;72.07;;;35.20;;
5987;SDS011;3021;51.000;6.980;2022-12-07T04:56:31;75.85;;;35.20;;
5987;SDS011;3021;51.000;6.980;2022-12-07T04:58:57;65.32;;;35.15;;
5987;SDS011;3021;51.000;6.980;2022-12-07T05:01:23;76.60;;;35.60;;
5987;SDS011;3021;51.000;6.980;2022-12-07T05:03:48;78.38;;;36.17;;
5987;SDS011;3021;51.000;6.980;2022-12-07T05:06:14;72.30;;;35.20;;
5987;SDS011;3021;51.000;6.980;2022-12-07T05:08:40;68.72;;;34.90;;
5987;SDS011;3021;51.000;6.980;2022-12-07T05:11:06;64.95;;;35.05;;
5987;SDS011;3021;51.000;6.980;2022-12-07T05:13:33;66.10;;;34.72;;
5987;SDS011;3021;51.000;6.980;2022-12-07T05:15:58;65.50;;;34.85;;
5987;SDS011;3021;51.000;6.980;2022-12-07T05:18:24;61.35;;;32.92;;
5987;SDS011;3021;51.000;6.980;2022-12-07T05:20:49;65.90;;;34.08;;
5987;SDS011;3021;51.000;6.980;2022-12-07T05:23:16;68.70;;;34.95;;
5987;SDS011;3021;51.000;6.980;2022-12-07T05:25:41;70.18;;;35.38;;
5987;SDS011;3021;51.000;6.980;2022-12-07T05:28:06;62.92;;;33.80;;
5987;SDS011;3021;51.000;6.980;2022-12-07T05:30:32;65.90;;;34.13;;
5987;SDS011;3021;51.000;6.980;2022-12-07T05:32:57;67.78;;;34.50;;
5987;SDS011;3021;51.000;6.980;2022-12-07T05:35:23;68.65;;;34.72;;
5987;SDS011;3021;51.000;6.980;2022-12-07T05:37:48;65.25;;;34.50;;
5987;SDS011;3021;51.000;6.980;2022-12-07T05:40:14;66.38;;;35.45;;
5987;SDS011;3021;51.000;6.980;2022-12-07T05:42:40;65.45;;;35.40;;
5987;SDS011;3021;51.000;6.980;2022-12-07T05:45:06;61.22;;;32.72;;
5987;SDS011;3021;51.000;6.980;2022-12-07T05:47:32;61.58;;;33.55;;
5987;SDS011;3021;51.000;6.980;2022-12-07T05:49:58;63.70;;;33.35;;
5987;SDS011;3021;51.000;6.980;2022-12-07T05:52:23;62.60;;;33.00;;
5987;SDS011;3021;51.000;6.980;2022-12-07T05:54:49;75.53;;;35.00;;
5987;SDS011;3021;51.000;6.980;2022-12-07T05:57:14;61.35;;;33.47;;
5987;SDS011;3021;51.000;6.980;2022-12-07T05:59:39;59.22;;;34.33;;
5987;SDS011;3021;51.000;6.980;2022-12-07T06:02:06;69.70;;;34.15;;
5987;SDS011;3021;51.000;6.980;2022-12-07T06:04:34;61.13;;;33.38;;
5987;SDS011;3021;51.000;6.980;2022-12-07T06:07:02;53.70;;;30.08;;
5987;SDS011;3021;51.000;6.980;2022-12-07T06:09:27;67.47;;;31.52;;
5987;SDS011;3021;51.000;6.980;2022-12-07T06:11:54;58.53;;;31.67;;
5987;SDS011;3021;51.000;6.980;2022-12-07T06:14:39;58.22;;;29.60;;
5987;SDS011;3021;51.000;6.980;2022-12-07T06:17:05;50.90;;;30.13;;
5987;SDS011;3021;51.000;6.980;2022-12-07T06:19:30;58.95;;;29.85;;
5987;SDS011;3021;51.000;6.980;2022-12-07T06:21:56;59.55;;;31.23;;
5987;SDS011;3021;51.000;6.980;2022-12-07T06:24:22;55.95;;;29.42;;
5987;SDS011;3021;51.000;6.980;2022-12-07T06:26:48;62.72;;;30.98;;
5987;SDS011;3021;51.000;6.980;2022-12-07T06:29:14;58.75;;;30.42;;
5987;SDS011;3021;51.000;6.980;2022-12-07T06:31:40;55.88;;;31.67;;
5987;SDS011;3021;51.000;6.980;2022-12-07T06:34:07;59.55;;;32.40;;
5987;SDS011;3021;51.000;6.980;2022-12-07T06:36:35;63.00;;;32.28;;
5987;SDS011;3021;51.000;6.980;2022-12-07T06:39:00;62.05;;;32.47;;
5987;SDS011;3021;51.000;6.980;2022-12-07T06:41:26;63.28;;;31.23;;
5987;SDS011;3021;51.000;6.980;2022-12-07T06:43:51;73.32;;;32.60;;
5987;SDS011;3021;51.000;6.980;2022-12-07T06:46:17;61.65;;;32.83;;
5987;SDS011;3021;51.000;6.980;2022-12-07T06:48:42;67.20;;;34.60;;
5987;SDS011;3021;51.000;6.980;2022-12-07T06:51:08;76.75;;;41.05;;
5987;SDS011;3021;51.000;6.980;2022-12-07T06:53:34;65.32;;;32.70;;
5987;SDS011;3021;51.000;6.980;2022-12-07T06:55:59;57.90;;;30.85;;
5987;SDS011;3021;51.000;6.980;2022-12-07T06:58:25;58.20;;;31.35;;
5987;SDS011;3021;51.000;6.980;2022-12-07T07:00:50;67.38;;;32.13;;
5987;SDS011;3021;51.000;6.980;2022-12-07T07:03:16;54.30;;;30.02;;
5987;SDS011;3021;51.000;6.980;2022-12-07T07:05:42;65.60;;;31.00;;
5987;SDS011;3021;51.000;6.980;2022-12-07T07:08:08;64.60;;;33.25;;
5987;SDS011;3021;51.000;6.980;2022-12-07T07:10:33;61.97;;;31.88;;
5987;SDS011;3021;51.000;6.980;2022-12-07T07:12:59;68.40;;;32.90;;
5987;SDS011;3021;51.000;6.980;2022-12-07T07:15:24;67.82;;;33.53;;
5987;SDS011;3021;51.000;6.980;2022-12-07T07:17:49;67.90;;;32.35;;
5987;SDS011;3021;51.000;6.980;2022-12-07T07:20:15;63.78;;;32.85;;
5987;SDS011;3021;51.000;6.980;2022-12-07T07:22:40;66.82;;;31.38;;
5987;SDS011;3021;51.000;6.980;2022-12-07T07:25:06;68.22;;;33.65;;
5987;SDS011;3021;51.000;6.980;2022-12-07T07:27:31;68.97;;;34.22;;
5987;SDS011;3021;51.000;6.980;2022-12-07T07:29:57;60.05;;;31.88;;
5987;SDS011;3021;51.000;6.980;2022-12-07T07:32:22;63.00;;;30.23;;
5987;SDS011;3021;51.000;6.980;2022-12-07T07:34:48;54.42;;;29.60;;
5987;SDS011;3021;51.000;6.980;2022-12-07T07:37:13;65.95;;;32.47;;
5987;SDS011;3021;51.000;6.980;2022-12-07T07:39:39;58.10;;;32.80;;
5987;SDS011;3021;51.000;6.980;2022-12-07T07:42:04;56.83;;;30.20;;
5987;SDS011;3021;51.000;6.980;2022-12-07T07:44:30;64.55;;;31.58;;
5987;SDS011;3021;51.000;6.980;2022-12-07T07:46:55;60.45;;;30.05;;
5987;SDS011;3021;51.000;6.980;2022-12-07T07:49:20;59.53;;;30.98;;
5987;SDS011;3021;51.000;6.980;2022-12-07T07:51:46;54.35;;;31.00;;
5987;SDS011;3021;51.000;6.980;2022-12-07T07:54:11;63.30;;;30.45;;
5987;SDS011;3021;51.000;6.980;2022-12-07T07:56:36;58.72;;;31.30;;
5987;SDS011;3021;51.000;6.980;2022-12-07T07:59:02;61.50;;;32.35;;
5987;SDS011;3021;51.000;6.980;2022-12-07T08:01:27;59.40;;;32.30;;
5987;SDS011;3021;51.000;6.980;2022-12-07T08:03:53;62.97;;;32.72;;
5987;SDS011;3021;51.000;6.980;2022-12-07T08:06:18;56.78;;;32.28;;
5987;SDS011;3021;51.000;6.980;2022-12-07T08:08:43;57.60;;;31.60;;
5987;SDS011;3021;51.000;6.980;2022-12-07T08:11:09;58.67;;;31.55;;
5987;SDS011;3021;51.000;6.980;2022-12-07T08:13:35;69.32;;;32.28;;
5987;SDS011;3021;51.000;6.980;2022-12-07T08:16:04;57.28;;;33.10;;
5987;SDS011;3021;51.000;6.980;2022-12-07T08:18:31;65.75;;;33.25;;
5987;SDS011;3021;51.000;6.980;2022-12-07T08:21:00;64.43;;;32.45;;
5987;SDS011;3021;51.000;6.980;2022-12-07T08:23:26;66.97;;;33.38;;
5987;SDS011;3021;51.000;6.980;2022-12-07T08:25:51;59.60;;;33.92;;
5987;SDS011;3021;51.000;6.980;2022-12-07T08:28:19;59.55;;;33.20;;
5987;SDS011;3021;51.000;6.980;2022-12-07T08:30:47;61.22;;;32.75;;
5987;SDS011;3021;51.000;6.980;2022-12-07T08:33:13;65.15;;;33.40;;
5987;SDS011;3021;51.000;6.980;2022-12-07T08:35:38;66.88;;;32.80;;
5987;SDS011;3021;51.000;6.980;2022-12-07T08:38:03;61.92;;;32.00;;
5987;SDS011;3021;51.000;6.980;2022-12-07T08:40:29;59.63;;;32.45;;
5987;SDS011;3021;51.000;6.980;2022-12-07T08:42:55;62.40;;;33.25;;
5987;SDS011;3021;51.000;6.980;2022-12-07T08:45:20;60.55;;;32.50;;
5987;SDS011;3021;51.000;6.980;2022-12-07T08:47:50;59.85;;;33.53;;
5987;SDS011;3021;51.000;6.980;2022-12-07T08:50:23;57.58;;;32.90;;
5987;SDS011;3021;51.000;6.980;2022-12-07T08:52:50;55.65;;;30.95;;
5987;SDS011;3021;51.000;6.980;2022-12-07T08:55:17;53.42;;;28.17;;
5987;SDS011;3021;51.000;6.980;2022-12-07T08:57:43;38.92;;;24.05;;
5987;SDS011;3021;51.000;6.980;2022-12-07T09:00:09;37.97;;;24.60;;
5987;SDS011;3021;51.000;6.980;2022-12-07T09:02:35;38.38;;;23.48;;
5987;SDS011;3021;51.000;6.980;2022-12-07T09:05:01;39.65;;;24.17;;
5987;SDS011;3021;51.000;6.980;2022-12-07T09:07:26;46.05;;;25.23;;
5987;SDS011;3021;51.000;6.980;2022-12-07T09:09:52;38.08;;;23.85;;
5987;SDS011;3021;51.000;6.980;2022-12-07T09:12:17;37.33;;;23.55;;
5987;SDS011;3021;51.000;6.980;2022-12-07T09:14:43;37.83;;;24.27;;
5987;SDS011;3021;51.000;6.980;2022-12-07T09:17:09;36.00;;;21.23;;
5987;SDS011;3021;51.000;6.980;2022-12-07T09:19:38;39.38;;;23.75;;
5987;SDS011;3021;51.000;6.980;2022-12-07T09:22:03;39.58;;;22.95;;
5987;SDS011;3021;51.000;6.980;2022-12-07T09:24:30;37.97;;;21.42;;
5987;SDS011;3021;51.000;6.980;2022-12-07T09:26:56;45.95;;;23.48;;
5987;SDS011;3021;51.000;6.980;2022-12-07T09:29:21;38.63;;;22.45;;
5987;SDS011;3021;51.000;6.980;2022-12-07T09:31:47;30.42;;;20.23;;
5987;SDS011;3021;51.000;6.980;2022-12-07T09:34:12;33.22;;;19.85;;
5987;SDS011;3021;51.000;6.980;2022-12-07T09:36:38;46.67;;;25.15;;
5987;SDS011;3021;51.000;6.980;2022-12-07T09:39:03;46.78;;;23.77;;
5987;SDS011;3021;51.000;6.980;2022-12-07T09:41:29;38.70;;;21.85;;
5987;SDS011;3021;51.000;6.980;2022-12-07T09:43:58;38.67;;;21.67;;
5987;SDS011;3021;51.000;6.980;2022-12-07T09:46:29;39.65;;;20.50;;
5987;SDS011;3021;51.000;6.980;2022-12-07T09:49:01;34.03;;;19.17;;
5987;SDS011;3021;51.000;6.980;2022-12-07T09:51:27;30.30;;;19.20;;
5987;SDS011;3021;51.000;6.980;2022-12-07T09:53:53;28.55;;;17.13;;
5987;SDS011;3021;51.000;6.980;2022-12-07T09:56:21;31.73;;;17.40;;
5987;SDS011;3021;51.000;6.980;2022-12-07T09:58:47;26.85;;;17.15;;
5987;SDS011;3021;51.000;6.980;2022-12-07T10:01:15;27.52;;;17.38;;
5987;SDS011;3021;51.000;6.980;2022-12-07T10:03:52;23.80;;;14.95;;
5987;SDS011;3021;51.000;6.980;2022-12-07T10:06:20;28.33;;;16.33;;
5987;SDS011;3021;51.000;6.980;2022-12-07T10:08:45;30.33;;;15.63;;
5987;SDS011;3021;51.000;6.980;2022-12-07T10:11:11;25.50;;;15.73;;
5987;SDS011;3021;51.000;6.980;2022-12-07T10:13:46;29.67;;;16.77;;
5987;SDS011;3021;51.000;6.980;2022-12-07T10:18:58;26.98;;;15.85;;
5987;SDS011;3021;51.000;6.980;2022-12-07T10:21:58;33.20;;;14.70;;
5987;SDS011;3021;51.000;6.980;2022-12-07T10:24:24;34.78;;;15.65;;
5987;SDS011;3021;51.000;6.980;2022-12-07T10:26:50;23.92;;;14.88;;
5987;SDS011;3021;51.000;6.980;2022-12-07T10:31:49;31.35;;;14.73;;
5987;SDS011;3021;51.000;6.980;2022-12-07T10:34:23;30.98;;;15.15;;
5987;SDS011;3021;51.000;6.980;2022-12-07T10:36:51;28.73;;;15.90;;
5987;SDS011;3021;51.000;6.980;2022-12-07T10:39:18;27.92;;;15.50;;
5987;SDS011;3021;51.000;6.980;2022-12-07T10:44:23;30.90;;;16.15;;
5987;SDS011;3021;51.000;6.980;2022-12-07T10:47:01;29.10;;;13.85;;
5987;SDS011;3021;51.000;6.980;2022-12-07T10:58:35;28.83;;;15.50;;
5987;SDS011;3021;51.000;6.980;2022-12-07T11:00:43;27.77;;;14.57;;
5987;SDS011;3021;51.000;6.980;2022-12-07T11:03:37;24.90;;;13.30;;
5987;SDS011;3021;51.000;6.980;2022-12-07T11:17:29;26.10;;;13.40;;
5987;SDS011;3021;51.000;6.980;2022-12-07T11:22:53;25.98;;;12.55;;
5987;SDS011;3021;51.000;6.980;2022-12-07T11:25:42;22.52;;;12.50;;
5987;SDS011;3021;51.000;6.980;2022-12-07T11:31:41;23.88;;;11.63;;
5987;SDS011;3021;51.000;6.980;2022-12-07T11:34:15;14.80;;;9.20;;
5987;SDS011;3021;51.000;6.980;2022-12-07T11:36:50;17.27;;;9.60;;
5987;SDS011;3021;51.000;6.980;2022-12-07T11:39:23;23.52;;;10.10;;
5987;SDS011;3021;51.000;6.980;2022-12-07T11:42:19;26.92;;;9.85;;
5987;SDS011;3021;51.000;6.980;2022-12-07T11:45:03;23.63;;;10.57;;
5987;SDS011;3021;51.000;6.980;2022-12-07T11:47:40;23.25;;;10.63;;
5987;SDS011;3021;51.000;6.980;2022-12-07T11:53:29;18.77;;;9.55;;
5987;SDS011;3021;51.000;6.980;2022-12-07T11:56:11;22.38;;;10.43;;
5987;SDS011;3021;51.000;6.980;2022-12-07T12:03:45;24.25;;;11.00;;
5987;SDS011;3021;51.000;6.980;2022-12-07T12:06:12;21.02;;;10.23;;
5987;SDS011;3021;51.000;6.980;2022-12-07T12:08:43;18.40;;;9.55;;
5987;SDS011;3021;51.000;6.980;2022-12-07T12:22:06;24.92;;;12.40;;
5987;SDS011;3021;51.000;6.980;2022-12-07T12:24:41;24.58;;;11.55;;
5987;SDS011;3021;51.000;6.980;2022-12-07T12:27:14;23.17;;;11.95;;
5987;SDS011;3021;51.000;6.980;2022-12-07T12:29:50;25.02;;;12.73;;
5987;SDS011;3021;51.000;6.980;2022-12-07T12:32:21;27.08;;;13.35;;
5987;SDS011;3021;51.000;6.980;2022-12-07T12:42:44;25.60;;;13.80;;
5987;SDS011;3021;51.000;6.980;2022-12-07T12:45:20;22.70;;;11.90;;
5987;SDS011;3021;51.000;6.980;2022-12-07T12:47:59;21.75;;;11.43;;
5987;SDS011;3021;51.000;6.980;2022-12-07T12:50:33;20.63;;;11.55;;
5987;SDS011;3021;51.000;6.980;2022-12-07T12:56:10;23.55;;;11.85;;
5987;SDS011;3021;51.000;6.980;2022-12-07T12:59:17;28.35;;;12.80;;
5987;SDS011;3021;51.000;6.980;2022-12-07T13:01:42;22.42;;;11.98;;
5987;SDS011;3021;51.000;6.980;2022-12-07T13:04:16;26.55;;;12.20;;
5987;SDS011;3021;51.000;6.980;2022-12-07T13:07:02;27.23;;;11.27;;
5987;SDS011;3021;51.000;6.980;2022-12-07T13:09:29;30.90;;;10.95;;
5987;SDS011;3021;51.000;6.980;2022-12-07T13:12:11;24.33;;;11.55;;
5987;SDS011;3021;51.000;6.980;2022-12-07T13:14:52;21.20;;;10.23;;
5987;SDS011;3021;51.000;6.980;2022-12-07T13:19:57;19.63;;;8.32;;
5987;SDS011;3021;51.000;6.980;2022-12-07T13:25:37;16.42;;;7.97;;
5987;SDS011;3021;51.000;6.980;2022-12-07T13:27:52;16.30;;;7.75;;
5987;SDS011;3021;51.000;6.980;2022-12-07T13:30:22;22.95;;;8.60;;
5987;SDS011;3021;51.000;6.980;2022-12-07T13:32:55;18.77;;;7.88;;
5987;SDS011;3021;51.000;6.980;2022-12-07T13:35:28;22.63;;;10.05;;
5987;SDS011;3021;51.000;6.980;2022-12-07T13:38:03;25.88;;;9.30;;
5987;SDS011;3021;51.000;6.980;2022-12-07T13:41:03;24.15;;;10.38;;
5987;SDS011;3021;51.000;6.980;2022-12-07T13:43:29;23.45;;;11.10;;
5987;SDS011;3021;51.000;6.980;2022-12-07T13:45:58;22.88;;;12.60;;
5987;SDS011;3021;51.000;6.980;2022-12-07T13:48:32;25.63;;;12.23;;
5987;SDS011;3021;51.000;6.980;2022-12-07T13:51:02;25.73;;;12.80;;
5987;SDS011;3021;51.000;6.980;2022-12-07T13:53:29;28.60;;;12.45;;
5987;SDS011;3021;51.000;6.980;2022-12-07T13:55:57;27.15;;;12.95;;
5987;SDS011;3021;51.000;6.980;2022-12-07T13:58:25;24.15;;;12.90;;
5987;SDS011;3021;51.000;6.980;2022-12-07T14:00:54;27.20;;;11.73;;
5987;SDS011;3021;51.000;6.980;2022-12-07T14:03:30;26.98;;;11.93;;
5987;SDS011;3021;51.000;6.980;2022-12-07T14:08:44;27.60;;;12.95;;
5987;SDS011;3021;51.000;6.980;2022-12-07T14:11:14;22.20;;;12.27;;
5987;SDS011;3021;51.000;6.980;2022-12-07T14:13:54;20.88;;;11.55;;
5987;SDS011;3021;51.000;6.980;2022-12-07T14:18:52;21.45;;;11.20;;
5987;SDS011;3021;51.000;6.980;2022-12-07T14:21:20;23.70;;;11.68;;
5987;SDS011;3021;51.000;6.980;2022-12-07T14:26:37;22.38;;;10.18;;
5987;SDS011;3021;51.000;6.980;2022-12-07T14:31:54;22.98;;;11.48;;
5987;SDS011;3021;51.000;6.980;2022-12-07T14:34:22;21.20;;;10.40;;
5987;SDS011;3021;51.000;6.980;2022-12-07T14:36:48;25.65;;;11.80;;
5987;SDS011;3021;51.000;6.980;2022-12-07T14:39:13;21.38;;;11.00;;
5987;SDS011;3021;51.000;6.980;2022-12-07T14:41:39;23.38;;;12.07;;
5987;SDS011;3021;51.000;6.980;2022-12-07T14:44:17;21.10;;;11.77;;
5987;SDS011;3021;51.000;6.980;2022-12-07T14:46:44;21.10;;;11.07;;
5987;SDS011;3021;51.000;6.980;2022-12-07T14:49:09;22.40;;;11.35;;
5987;SDS011;3021;51.000;6.980;2022-12-07T14:51:36;22.25;;;11.23;;
5987;SDS011;3021;51.000;6.980;2022-12-07T14:54:04;19.35;;;10.73;;
5987;SDS011;3021;51.000;6.980;2022-12-07T14:56:31;21.45;;;10.73;;
5987;SDS011;3021;51.000;6.980;2022-12-07T14:58:57;20.42;;;11.07;;
5987;SDS011;3021;51.000;6.980;2022-12-07T15:01:22;21.02;;;11.40;;
5987;SDS011;3021;51.000;6.980;2022-12-07T15:03:47;24.00;;;11.85;;
5987;SDS011;3021;51.000;6.980;2022-12-07T15:06:14;24.42;;;11.60;;
5987;SDS011;3021;51.000;6.980;2022-12-07T15:08:40;21.50;;;12.00;;
5987;SDS011;3021;51.000;6.980;2022-12-07T15:11:09;20.98;;;12.32;;
5987;SDS011;3021;51.000;6.980;2022-12-07T15:13:37;31.15;;;12.52;;
5987;SDS011;3021;51.000;6.980;2022-12-07T15:16:20;22.42;;;12.07;;
5987;SDS011;3021;51.000;6.980;2022-12-07T15:18:46;25.58;;;13.00;;
5987;SDS011;3021;51.000;6.980;2022-12-07T15:21:14;21.85;;;12.95;;
5987;SDS011;3021;51.000;6.980;2022-12-07T15:23:40;22.40;;;11.88;;
5987;SDS011;3021;51.000;6.980;2022-12-07T15:26:06;26.05;;;11.90;;
5987;SDS011;3021;51.000;6.980;2022-12-07T15:28:33;14.90;;;8.32;;
5987;SDS011;3021;51.000;6.980;2022-12-07T15:30:58;13.07;;;7.60;;
5987;SDS011;3021;51.000;6.980;2022-12-07T15:33:24;14.35;;;6.90;;
5987;SDS011;3021;51.000;6.980;2022-12-07T15:35:49;13.07;;;7.30;;
5987;SDS011;3021;51.000;6.980;2022-12-07T15:38:14;11.52;;;6.53;;
5987;SDS011;3021;51.000;6.980;2022-12-07T15:40:40;15.68;;;6.97;;
5987;SDS011;3021;51.000;6.980;2022-12-07T15:43:05;17.02;;;6.63;;
5987;SDS011;3021;51.000;6.980;2022-12-07T15:45:50;12.80;;;6.60;;
5987;SDS011;3021;51.000;6.980;2022-12-07T15:48:16;10.88;;;5.68;;
5987;SDS011;3021;51.000;6.980;2022-12-07T15:50:41;15.30;;;6.72;;
5987;SDS011;3021;51.000;6.980;2022-12-07T15:53:07;14.13;;;6.70;;
5987;SDS011;3021;51.000;6.980;2022-12-07T15:55:32;13.95;;;6.28;;
5987;SDS011;3021;51.000;6.980;2022-12-07T15:57:57;11.32;;;6.05;;
5987;SDS011;3021;51.000;6.980;2022-12-07T16:00:23;14.95;;;6.57;;
5987;SDS011;3021;51.000;6.980;2022-12-07T16:02:48;14.98;;;6.97;;
5987;SDS011;3021;51.000;6.980;2022-12-07T16:05:13;13.18;;;7.47;;
5987;SDS011;3021;51.000;6.980;2022-12-07T16:07:39;15.23;;;8.80;;
5987;SDS011;3021;51.000;6.980;2022-12-07T16:10:04;16.45;;;8.77;;
5987;SDS011;3021;51.000;6.980;2022-12-07T16:12:30;18.17;;;9.38;;
5987;SDS011;3021;51.000;6.980;2022-12-07T16:14:56;16.90;;;10.05;;
5987;SDS011;3021;51.000;6.980;2022-12-07T16:17:21;20.02;;;10.75;;
5987;SDS011;3021;51.000;6.980;2022-12-07T16:19:46;19.98;;;10.25;;
5987;SDS011;3021;51.000;6.980;2022-12-07T16:22:12;22.40;;;11.05;;
5987;SDS011;3021;51.000;6.980;2022-12-07T16:24:37;21.73;;;11.85;;
5987;SDS011;3021;51.000;6.980;2022-12-07T16:27:03;24.60;;;12.15;;
5987;SDS011;3021;51.000;6.980;2022-12-07T16:29:28;20.85;;;12.02;;
5987;SDS011;3021;51.000;6.980;2022-12-07T16:31:53;24.98;;;13.43;;
5987;SDS011;3021;51.000;6.980;2022-12-07T16:34:19;30.45;;;13.25;;
5987;SDS011;3021;51.000;6.980;2022-12-07T16:36:44;22.50;;;12.73;;
5987;SDS011;3021;51.000;6.980;2022-12-07T16:39:10;32.55;;;14.25;;
5987;SDS011;3021;51.000;6.980;2022-12-07T16:41:36;18.48;;;12.07;;
5987;SDS011;3021;51.000;6.980;2022-12-07T16:44:02;29.35;;;13.10;;
5987;SDS011;3021;51.000;6.980;2022-12-07T16:46:31;27.73;;;14.38;;
5987;SDS011;3021;51.000;6.980;2022-12-07T16:48:57;23.83;;;14.23;;